»·PEaware :: N3161T KHND-KINS

N3161T :: KHND-KINS

FLIGHT INFORMATION

Flight Status: Arrived
Operator: Privately registered:
United States
More flights under this callsign
Pilot: Volker H. (8179)
Aircraft: PIPER PA-28R-201 ARROW
(P28R)
More flights by this aircraft type
Origin: KHND Henderson
United States
Destination: KINS Indian Springs AF Aux
United States
More flights between these airports :: More routes between these airports
Route: +LAS INS
File this flight plan on PilotEdge
Remarks:
Altitude:
(Current/Filed)
8,000ft
Speed:
(Current/Filed)
160kts
Departed: 03-Nov-19 12:28 PM
Arrived: 03-Nov-19 12:57 PM
Distance/Time
Traveled:
45nm/0:28
Distance/Time
To Go:
Arrived

Flight Plot

Page will automatically refresh every two minutes.

Flight plan parsing failed; only flown route is shown


Map Options




Map Legend


Flown Route
Filed Route
Departure Airport
Arrival Airport
Navaid (VOR, NDB)
Fix

Horizontal Profiles

Position Reports

Time Latitude Longitude Heading Altitude Ground
Speed
03-Nov-19 12:09 35.974604 -115.137857 270 2495ft 0kts
03-Nov-19 12:10 35.974604 -115.137857 270 2495ft 0kts
03-Nov-19 12:11 35.974604 -115.137857 270 2495ft 0kts
03-Nov-19 12:12 35.974604 -115.137857 270 2495ft 0kts
03-Nov-19 12:13 35.974604 -115.137857 270 2495ft 0kts
03-Nov-19 12:14 35.974604 -115.137858 270 2495ft 0kts
03-Nov-19 12:15 35.974604 -115.137858 270 2495ft 0kts
03-Nov-19 12:16 35.974604 -115.137859 270 2495ft 0kts
03-Nov-19 12:17 35.974604 -115.137859 270 2495ft 0kts
03-Nov-19 12:18 35.974604 -115.137859 270 2495ft 0kts
03-Nov-19 12:19 35.974604 -115.137860 270 2495ft 0kts
03-Nov-19 12:20 35.974604 -115.137865 270 2495ft 0kts
03-Nov-19 12:21 35.974134 -115.136360 143 2495ft 3kts
03-Nov-19 12:22 35.969777 -115.136581 179 2495ft 22kts
03-Nov-19 12:23 35.963766 -115.136668 181 2495ft 12kts
03-Nov-19 12:24 35.963344 -115.136304 92 2495ft 0kts
03-Nov-19 12:25 35.963344 -115.136304 92 2495ft 0kts
03-Nov-19 12:26 35.963344 -115.136294 92 2495ft 0kts
03-Nov-19 12:27 35.969477 -115.135460 0 2495ft 85kts
03-Nov-19 12:28 35.987378 -115.149812 225 3360ft 105kts
03-Nov-19 12:29 35.958794 -115.158256 190 4299ft 112kts
03-Nov-19 12:30 35.926144 -115.165864 190 5087ft 125kts
03-Nov-19 12:31 35.890841 -115.174348 190 5921ft 130kts
03-Nov-19 12:32 35.855177 -115.182232 190 6817ft 129kts
03-Nov-19 12:33 35.819679 -115.189838 190 7706ft 129kts
03-Nov-19 12:34 35.784258 -115.197447 190 8594ft 129kts
03-Nov-19 12:35 35.780083 -115.223195 329 9509ft 114kts
03-Nov-19 12:36 35.809113 -115.245279 329 10024ft 143kts
03-Nov-19 12:37 35.847437 -115.274328 329 10004ft 173kts
03-Nov-19 12:38 35.889722 -115.306181 329 9999ft 180kts
03-Nov-19 12:39 35.934778 -115.332746 348 10002ft 180kts
03-Nov-19 12:40 35.984675 -115.342408 351 9996ft 181kts
03-Nov-19 12:41 36.034633 -115.351586 351 9980ft 181kts
03-Nov-19 12:42 36.082150 -115.360315 351 9945ft 166kts
03-Nov-19 12:43 36.130469 -115.369174 351 9303ft 180kts
03-Nov-19 12:44 36.180705 -115.378295 351 8653ft 183kts
03-Nov-19 12:45 36.231169 -115.387458 351 7995ft 183kts
03-Nov-19 12:46 36.281493 -115.396573 351 7334ft 182kts
03-Nov-19 12:47 36.331564 -115.405496 351 6684ft 181kts
03-Nov-19 12:48 36.372540 -115.435764 322 6479ft 164kts
03-Nov-19 12:49 36.407189 -115.469882 322 6493ft 156kts
03-Nov-19 12:50 36.446058 -115.491600 337 6500ft 153kts
03-Nov-19 12:51 36.479082 -115.525086 319 6505ft 154kts
03-Nov-19 12:52 36.510779 -115.560108 319 6315ft 140kts
03-Nov-19 12:53 36.540683 -115.593197 319 5670ft 147kts
03-Nov-19 12:54 36.573864 -115.615194 2 4774ft 132kts
03-Nov-19 12:55 36.585465 -115.651789 272 3262ft 97kts
03-Nov-19 12:56 36.586420 -115.668698 267 3136ft 9kts
03-Nov-19 12:57 36.585622 -115.669139 181 3136ft 0kts
03-Nov-19 12:58 36.585621 -115.669139 181 3136ft 0kts
03-Nov-19 12:59 36.584723 -115.669405 217 3136ft 12kts
03-Nov-19 13:00 36.583346 -115.670237 165 3136ft 0kts

Navigation Log

Ident Type
Flight plan parsing failed, navigation log unavailable